Time;durP1;ratioP1;P1;durP2;ratioP2;P2;SDS_P1;SDS_P2;PMS_P1;PMS_P2;Temp;Humidity;BMP_temperature;BMP_pressure;BME280_temperature;BME280_humidity;BME280_pressure;Samples;Min_cycle;Max_cycle;Signal;HPM_P1;HPM_P2
2022/07/18 00:01:48;;;;;;;;;;;23.60;66.50;;;;;;5017358;28;19913;-88
2022/07/18 00:04:14;;;;;;;;;;;23.50;66.40;;;;;;5018582;28;19917;-87
2022/07/18 00:06:39;;;;;;;;;;;23.50;66.80;;;;;;4999214;28;19913;-87
2022/07/18 00:09:05;;;;;;;;;;;23.50;66.40;;;;;;5002406;28;19925;-87
2022/07/18 00:11:31;;;;;;;;;;;23.50;66.80;;;;;;5019754;28;19948;-86
2022/07/18 00:13:56;;;;;;;;;;;23.40;67.10;;;;;;5020703;28;19921;-87
2022/07/18 00:16:22;;;;;;;;;;;23.40;66.60;;;;;;5015946;28;19919;-87
2022/07/18 00:18:48;;;;;;;;;;;23.40;66.80;;;;;;5018173;28;20402;-87
2022/07/18 00:21:14;;;;;;;;;;;23.40;67.10;;;;;;5001209;28;20000;-88
2022/07/18 00:23:39;;;;;;;;;;;23.40;67.00;;;;;;5020524;28;19951;-87
2022/07/18 00:26:05;;;;;;;;;;;23.30;67.30;;;;;;5019110;28;20007;-87
2022/07/18 00:28:30;;;;;;;;;;;23.30;67.40;;;;;;5018504;28;19921;-87
2022/07/18 00:30:56;;;;;;;;;;;23.20;67.80;;;;;;5019793;28;19912;-87
2022/07/18 00:33:22;;;;;;;;;;;23.10;68.00;;;;;;5019537;28;19963;-87
2022/07/18 00:35:48;;;;;;;;;;;23.10;68.40;;;;;;5013815;28;19920;-87
2022/07/18 00:38:13;;;;;;;;;;;23.10;68.40;;;;;;5019368;28;19913;-86
2022/07/18 00:40:39;;;;;;;;;;;23.00;68.60;;;;;;4999629;28;19924;-87
2022/07/18 00:43:04;;;;;;;;;;;23.10;68.30;;;;;;5017328;28;19917;-87
2022/07/18 00:45:30;;;;;;;;;;;23.00;68.70;;;;;;5003479;28;19986;-87
2022/07/18 00:47:56;;;;;;;;;;;22.90;69.30;;;;;;5019548;28;19944;-87
2022/07/18 00:50:22;;;;;;;;;;;22.90;69.10;;;;;;5019576;28;19956;-87
2022/07/18 00:52:47;;;;;;;;;;;22.90;69.10;;;;;;5016900;28;19913;-88
2022/07/18 00:55:13;;;;;;;;;;;22.90;69.30;;;;;;5017079;28;19913;-88
2022/07/18 00:57:39;;;;;;;;;;;22.80;69.30;;;;;;4996774;28;19935;-87
2022/07/18 01:02:53;;;;;;;;;;;22.70;70.10;;;;;;5017633;28;20389;-87
2022/07/18 01:05:19;;;;;;;;;;;22.60;70.40;;;;;;5022949;28;19948;-87
2022/07/18 01:07:44;;;;;;;;;;;22.60;70.70;;;;;;5022572;28;19996;-87
2022/07/18 01:10:10;;;;;;;;;;;22.60;70.40;;;;;;5020362;28;20008;-87
2022/07/18 01:12:35;;;;;;;;;;;22.60;70.30;;;;;;5008958;28;19929;-87
2022/07/18 01:15:02;;;;;;;;;;;22.50;71.30;;;;;;5007408;28;19913;-87
2022/07/18 01:17:27;;;;;;;;;;;22.40;71.40;;;;;;5006191;28;19916;-87
2022/07/18 01:19:53;;;;;;;;;;;22.40;71.70;;;;;;5022928;28;20442;-87
2022/07/18 01:22:19;;;;;;;;;;;22.40;71.70;;;;;;5037870;28;20660;-88
2022/07/18 01:24:44;;;;;;;;;;;22.30;71.90;;;;;;5022539;28;20401;-87
2022/07/18 01:27:14;;;;;;;;;;;22.30;71.70;;;;;;5021546;28;19971;-88
2022/07/18 01:29:40;;;;;;;;;;;22.40;71.40;;;;;;5021609;28;19967;-88
2022/07/18 01:32:09;;;;;;;;;;;22.40;71.30;;;;;;5021924;28;20007;-87
2022/07/18 01:34:34;;;;;;;;;;;22.30;71.70;;;;;;5015629;28;20431;-87
2022/07/18 01:37:00;;;;;;;;;;;22.30;71.70;;;;;;5021167;28;20011;-88
2022/07/18 01:39:26;;;;;;;;;;;22.30;71.90;;;;;;5021175;28;19917;-87
2022/07/18 01:41:55;;;;;;;;;;;22.30;71.90;;;;;;5001821;28;19983;-86
2022/07/18 01:44:21;;;;;;;;;;;22.30;71.90;;;;;;5023536;28;20336;-87
2022/07/18 01:46:46;;;;;;;;;;;22.20;72.10;;;;;;5003857;28;19967;-87
2022/07/18 01:49:12;;;;;;;;;;;22.20;72.40;;;;;;5018652;28;19972;-87
2022/07/18 01:51:37;;;;;;;;;;;22.20;72.50;;;;;;5022746;28;20006;-87
2022/07/18 01:54:03;;;;;;;;;;;22.20;72.30;;;;;;5020091;28;19971;-87
2022/07/18 01:56:28;;;;;;;;;;;22.20;72.40;;;;;;5004916;28;20366;-86
2022/07/18 01:58:54;;;;;;;;;;;22.10;72.10;;;;;;5021512;28;19917;-86
2022/07/18 02:01:19;;;;;;;;;;;22.10;72.40;;;;;;5020517;28;20396;-87
2022/07/18 02:03:45;;;;;;;;;;;22.10;72.30;;;;;;5023328;28;20451;-86
2022/07/18 02:06:10;;;;;;;;;;;22.00;72.60;;;;;;5023800;28;19917;-86
2022/07/18 02:08:36;;;;;;;;;;;22.00;72.80;;;;;;5021995;28;20459;-86
2022/07/18 02:11:02;;;;;;;;;;;22.00;72.90;;;;;;5022096;28;20376;-86
2022/07/18 02:13:28;;;;;;;;;;;21.90;73.20;;;;;;5021341;28;19953;-86
2022/07/18 02:15:56;;;;;;;;;;;21.80;74.00;;;;;;5006044;28;19913;-87
2022/07/18 02:18:22;;;;;;;;;;;21.70;73.90;;;;;;5020801;28;21936;-86
2022/07/18 02:20:47;;;;;;;;;;;21.80;73.80;;;;;;5018026;28;20032;-87
2022/07/18 02:23:13;;;;;;;;;;;21.70;74.20;;;;;;4999156;28;19909;-85
2022/07/18 02:25:38;;;;;;;;;;;21.70;74.40;;;;;;5021684;28;19916;-87
2022/07/18 02:28:04;;;;;;;;;;;21.70;73.90;;;;;;5002093;28;20538;-87
2022/07/18 02:30:30;;;;;;;;;;;21.60;74.50;;;;;;5020209;28;20352;-87
2022/07/18 02:32:55;;;;;;;;;;;21.60;74.40;;;;;;5021473;28;19956;-87
2022/07/18 02:35:21;;;;;;;;;;;21.60;74.20;;;;;;5015752;28;19939;-87
2022/07/18 02:37:46;;;;;;;;;;;21.60;74.60;;;;;;5020831;28;20019;-87
2022/07/18 02:40:12;;;;;;;;;;;21.60;74.90;;;;;;5014824;28;19959;-87
2022/07/18 02:42:38;;;;;;;;;;;21.50;75.10;;;;;;5020685;28;20402;-87
2022/07/18 02:45:04;;;;;;;;;;;21.50;75.20;;;;;;5015335;28;19917;-87
2022/07/18 02:47:29;;;;;;;;;;;21.40;75.40;;;;;;5020608;28;20377;-87
2022/07/18 02:49:55;;;;;;;;;;;21.40;75.60;;;;;;5021965;28;19975;-87
2022/07/18 02:52:21;;;;;;;;;;;21.40;75.70;;;;;;5016913;28;20305;-87
2022/07/18 02:54:46;;;;;;;;;;;21.30;77.00;;;;;;5021943;28;20386;-87
2022/07/18 02:57:12;;;;;;;;;;;21.40;75.70;;;;;;5020388;28;19920;-87
2022/07/18 02:59:38;;;;;;;;;;;21.30;76.20;;;;;;5021808;28;19913;-86
2022/07/18 03:02:04;;;;;;;;;;;21.30;76.10;;;;;;5017558;28;19913;-87
2022/07/18 03:04:29;;;;;;;;;;;21.30;76.60;;;;;;5021017;28;19912;-87
2022/07/18 03:06:55;;;;;;;;;;;21.20;76.30;;;;;;5021784;28;19920;-87
2022/07/18 03:09:21;;;;;;;;;;;21.20;76.40;;;;;;4999788;28;20611;-87
2022/07/18 03:11:46;;;;;;;;;;;21.20;76.90;;;;;;5003732;28;19920;-87
2022/07/18 03:14:12;;;;;;;;;;;21.10;77.00;;;;;;5019758;28;19919;-87
2022/07/18 03:16:38;;;;;;;;;;;21.20;77.20;;;;;;5019316;28;20419;-86
2022/07/18 03:19:03;;;;;;;;;;;21.10;77.60;;;;;;5005027;28;20496;-87
2022/07/18 03:21:29;;;;;;;;;;;21.00;77.90;;;;;;5019029;28;19920;-86
2022/07/18 03:23:55;;;;;;;;;;;21.00;78.20;;;;;;5019282;28;19917;-87
2022/07/18 03:26:21;;;;;;;;;;;21.00;77.90;;;;;;5018629;28;20495;-87
2022/07/18 03:28:46;;;;;;;;;;;20.90;78.80;;;;;;5018478;28;20349;-87
2022/07/18 03:31:12;;;;;;;;;;;20.90;78.70;;;;;;5019520;28;19979;-87
2022/07/18 03:33:38;;;;;;;;;;;20.90;78.80;;;;;;5018556;28;19960;-87
2022/07/18 03:36:03;;;;;;;;;;;20.80;79.30;;;;;;5017829;28;19913;-88
2022/07/18 03:38:29;;;;;;;;;;;20.90;79.20;;;;;;5002210;28;19913;-87
2022/07/18 03:40:55;;;;;;;;;;;20.80;79.10;;;;;;5020526;28;19960;-88
2022/07/18 03:43:20;;;;;;;;;;;20.80;79.50;;;;;;5016355;28;19991;-86
2022/07/18 03:45:46;;;;;;;;;;;20.80;79.40;;;;;;5023437;28;19972;-80
2022/07/18 03:48:12;;;;;;;;;;;20.80;79.40;;;;;;5019151;28;19921;-80
2022/07/18 03:50:38;;;;;;;;;;;20.70;79.80;;;;;;5020533;28;19920;-89
2022/07/18 03:53:03;;;;;;;;;;;20.70;80.10;;;;;;5022155;28;19913;-93
2022/07/18 03:55:29;;;;;;;;;;;20.70;79.80;;;;;;5021601;28;19917;-96
2022/07/18 03:57:54;;;;;;;;;;;20.70;80.00;;;;;;5021574;28;19963;-88
2022/07/18 04:00:20;;;;;;;;;;;20.70;80.00;;;;;;5017701;28;19936;-86
2022/07/18 04:02:46;;;;;;;;;;;20.70;80.00;;;;;;5018023;28;20460;-86
2022/07/18 04:05:13;;;;;;;;;;;20.60;81.30;;;;;;5020754;28;19912;-84
2022/07/18 04:07:39;;;;;;;;;;;20.50;81.40;;;;;;5017895;28;19913;-85
2022/07/18 04:10:05;;;;;;;;;;;20.60;80.70;;;;;;5019658;28;19947;-86
2022/07/18 04:12:31;;;;;;;;;;;20.60;80.80;;;;;;5014446;28;19928;-84
2022/07/18 04:14:57;;;;;;;;;;;20.50;81.30;;;;;;5018274;28;19913;-84
2022/07/18 04:17:22;;;;;;;;;;;20.40;81.10;;;;;;5021916;28;19912;-83
2022/07/18 04:19:48;;;;;;;;;;;20.60;80.30;;;;;;5020903;28;19913;-83
2022/07/18 04:22:13;;;;;;;;;;;20.50;80.40;;;;;;5000588;28;20293;-84
2022/07/18 04:24:39;;;;;;;;;;;20.50;81.30;;;;;;5016428;28;19963;-85
2022/07/18 04:27:04;;;;;;;;;;;20.40;81.40;;;;;;5016490;28;20293;-84
2022/07/18 04:29:31;;;;;;;;;;;20.50;80.90;;;;;;5019573;28;19921;-84
2022/07/18 04:31:59;;;;;;;;;;;20.50;80.60;;;;;;5015891;28;19913;-84
2022/07/18 04:34:25;;;;;;;;;;;20.50;80.90;;;;;;5012997;28;19924;-85
2022/07/18 04:36:50;;;;;;;;;;;20.40;81.40;;;;;;5019373;28;19912;-85
2022/07/18 04:39:19;;;;;;;;;;;20.60;80.40;;;;;;5012879;28;19913;-84
2022/07/18 04:41:44;;;;;;;;;;;20.80;79.80;;;;;;5018338;28;19923;-83
2022/07/18 04:44:10;;;;;;;;;;;21.20;78.10;;;;;;5013689;28;19913;-87
2022/07/18 04:46:35;;;;;;;;;;;21.30;77.10;;;;;;5010728;28;19975;-86
2022/07/18 04:49:01;;;;;;;;;;;21.40;76.60;;;;;;5013640;28;19921;-86
2022/07/18 04:51:26;;;;;;;;;;;21.40;76.10;;;;;;5017712;28;19912;-85
2022/07/18 04:53:54;;;;;;;;;;;21.60;75.50;;;;;;5015207;28;19917;-85
2022/07/18 04:56:20;;;;;;;;;;;21.70;75.00;;;;;;5018667;28;19913;-86
2022/07/18 04:58:45;;;;;;;;;;;21.80;74.40;;;;;;5013289;28;20399;-86
2022/07/18 05:01:11;;;;;;;;;;;21.90;74.40;;;;;;5017868;28;19913;-85
2022/07/18 05:03:36;;;;;;;;;;;22.10;73.10;;;;;;5012985;28;19913;-85
2022/07/18 05:06:02;;;;;;;;;;;22.20;72.80;;;;;;5018146;28;19913;-86
2022/07/18 05:08:27;;;;;;;;;;;22.20;72.90;;;;;;5018420;28;19921;-86
2022/07/18 05:10:53;;;;;;;;;;;22.30;72.30;;;;;;5015201;28;20389;-86
2022/07/18 05:13:18;;;;;;;;;;;22.60;72.50;;;;;;5018050;28;19927;-85
2022/07/18 05:15:44;;;;;;;;;;;22.70;70.80;;;;;;5016324;28;19970;-86
2022/07/18 05:18:09;;;;;;;;;;;22.80;71.00;;;;;;5013538;28;19963;-86
2022/07/18 05:20:35;;;;;;;;;;;23.10;69.40;;;;;;5016231;28;19948;-85
2022/07/18 05:23:01;;;;;;;;;;;23.30;68.80;;;;;;5014244;28;19940;-85
2022/07/18 05:25:26;;;;;;;;;;;23.30;68.50;;;;;;5012352;28;19948;-85
2022/07/18 05:27:52;;;;;;;;;;;23.40;68.70;;;;;;5012503;28;20354;-85
2022/07/18 05:30:19;;;;;;;;;;;24.40;66.20;;;;;;5015401;28;19920;-84
2022/07/18 05:32:45;;;;;;;;;;;24.60;65.50;;;;;;5005814;28;19947;-86
2022/07/18 05:35:11;;;;;;;;;;;24.90;64.00;;;;;;5020434;28;19920;-87
2022/07/18 05:37:37;;;;;;;;;;;25.10;64.20;;;;;;5017274;28;19932;-87
2022/07/18 05:40:04;;;;;;;;;;;25.50;62.80;;;;;;5020140;28;19909;-85
2022/07/18 05:42:30;;;;;;;;;;;25.60;62.40;;;;;;5017433;28;19971;-86
2022/07/18 05:44:55;;;;;;;;;;;26.10;61.80;;;;;;5018322;28;19947;-86
2022/07/18 05:47:21;;;;;;;;;;;26.20;61.60;;;;;;5016967;28;20011;-86
2022/07/18 05:49:46;;;;;;;;;;;26.30;60.80;;;;;;5019234;28;20490;-86
2022/07/18 05:52:12;;;;;;;;;;;26.40;60.00;;;;;;5019169;28;20005;-87
2022/07/18 05:54:37;;;;;;;;;;;26.70;59.60;;;;;;5021697;28;19912;-86
2022/07/18 05:57:03;;;;;;;;;;;26.80;59.30;;;;;;5019635;28;19913;-87
2022/07/18 05:59:29;;;;;;;;;;;27.20;58.90;;;;;;5019146;28;19913;-86
2022/07/18 06:01:54;;;;;;;;;;;27.30;58.00;;;;;;5019171;28;20460;-86
2022/07/18 06:04:20;;;;;;;;;;;27.40;57.90;;;;;;5016858;28;19913;-87
2022/07/18 06:06:45;;;;;;;;;;;27.40;57.50;;;;;;5024181;28;19920;-84
2022/07/18 06:09:12;;;;;;;;;;;27.80;57.50;;;;;;5023130;28;20368;-84
2022/07/18 06:11:38;;;;;;;;;;;28.10;56.20;;;;;;5020926;28;19919;-84
2022/07/18 06:14:03;;;;;;;;;;;27.90;55.70;;;;;;5000012;28;19917;-83
2022/07/18 06:16:29;;;;;;;;;;;27.80;56.40;;;;;;5018033;28;19952;-85
2022/07/18 06:18:55;;;;;;;;;;;28.10;56.00;;;;;;5021951;28;19913;-85
2022/07/18 06:21:21;;;;;;;;;;;28.50;55.30;;;;;;5020672;28;20436;-84
2022/07/18 06:23:47;;;;;;;;;;;28.60;55.40;;;;;;5016629;28;19996;-83
2022/07/18 06:26:12;;;;;;;;;;;28.70;54.40;;;;;;5009614;28;19920;-85
2022/07/18 06:28:38;;;;;;;;;;;28.50;54.60;;;;;;5012793;28;19931;-85
2022/07/18 06:31:03;;;;;;;;;;;29.30;54.10;;;;;;5010790;28;20000;-85
2022/07/18 06:33:29;;;;;;;;;;;29.20;53.70;;;;;;5008903;28;20000;-84
2022/07/18 06:35:54;;;;;;;;;;;29.50;52.70;;;;;;5007006;28;20440;-85
2022/07/18 06:38:20;;;;;;;;;;;30.00;53.20;;;;;;5009030;28;19924;-85
2022/07/18 06:40:45;;;;;;;;;;;29.80;52.80;;;;;;5007782;28;19909;-85
2022/07/18 06:43:11;;;;;;;;;;;30.00;51.70;;;;;;5007614;28;19928;-85
2022/07/18 06:45:36;;;;;;;;;;;29.60;52.20;;;;;;5004300;28;19916;-85
2022/07/18 06:48:02;;;;;;;;;;;30.10;51.90;;;;;;5008647;28;19961;-85
2022/07/18 06:50:28;;;;;;;;;;;30.50;52.00;;;;;;5011164;28;19917;-85
2022/07/18 06:52:54;;;;;;;;;;;30.20;51.30;;;;;;4998405;28;19967;-85
2022/07/18 06:55:19;;;;;;;;;;;30.90;50.40;;;;;;4991055;28;19947;-84
2022/07/18 06:57:45;;;;;;;;;;;31.00;50.40;;;;;;5009350;28;20035;-84
2022/07/18 07:00:13;;;;;;;;;;;31.40;50.00;;;;;;5004078;28;20016;-85
2022/07/18 07:02:46;;;;;;;;;;;30.80;50.60;;;;;;5005920;28;19913;-85
2022/07/18 07:05:12;;;;;;;;;;;31.10;50.30;;;;;;5007133;28;20691;-85
2022/07/18 07:07:38;;;;;;;;;;;31.60;49.80;;;;;;5010112;28;19987;-84
2022/07/18 07:10:04;;;;;;;;;;;31.70;49.50;;;;;;5012842;28;20040;-85
2022/07/18 07:12:29;;;;;;;;;;;31.70;49.90;;;;;;5007723;28;19980;-85
2022/07/18 07:14:55;;;;;;;;;;;31.80;48.90;;;;;;5008379;28;19917;-86
2022/07/18 07:17:20;;;;;;;;;;;32.00;49.10;;;;;;5008817;28;19917;-85
2022/07/18 07:19:46;;;;;;;;;;;32.40;49.20;;;;;;4998512;28;20375;-84
2022/07/18 07:22:11;;;;;;;;;;;32.80;48.40;;;;;;5012688;28;19945;-85
2022/07/18 07:24:38;;;;;;;;;;;32.60;48.30;;;;;;5013759;28;20393;-85
2022/07/18 07:27:03;;;;;;;;;;;33.00;48.50;;;;;;5019650;28;19913;-85
2022/07/18 07:29:29;;;;;;;;;;;32.90;48.10;;;;;;5018995;28;20664;-84
2022/07/18 07:31:55;;;;;;;;;;;32.80;48.00;;;;;;5019036;28;19917;-84
2022/07/18 07:34:20;;;;;;;;;;;33.20;48.00;;;;;;5016538;28;19919;-84
2022/07/18 07:36:46;;;;;;;;;;;33.00;48.10;;;;;;5002474;28;19917;-85
2022/07/18 07:39:12;;;;;;;;;;;33.60;48.10;;;;;;5017379;28;19913;-85
2022/07/18 07:41:37;;;;;;;;;;;33.80;47.60;;;;;;5020056;28;19917;-85
2022/07/18 07:44:03;;;;;;;;;;;33.40;47.90;;;;;;5015449;28;19913;-85
2022/07/18 07:46:28;;;;;;;;;;;34.20;47.30;;;;;;5017706;28;19923;-84
2022/07/18 07:48:54;;;;;;;;;;;34.10;47.10;;;;;;5021177;28;19920;-83
2022/07/18 07:51:19;;;;;;;;;;;34.20;46.60;;;;;;5021087;28;19943;-84
2022/07/18 07:53:45;;;;;;;;;;;34.80;46.80;;;;;;5007845;28;20479;-83
2022/07/18 07:56:10;;;;;;;;;;;34.50;46.40;;;;;;5019992;28;19921;-84
2022/07/18 07:58:36;;;;;;;;;;;35.10;45.90;;;;;;5019127;28;20006;-83
2022/07/18 08:01:02;;;;;;;;;;;35.00;45.70;;;;;;5019516;28;19920;-85
2022/07/18 08:03:27;;;;;;;;;;;35.30;45.80;;;;;;5018174;28;19917;-84
2022/07/18 08:05:53;;;;;;;;;;;35.40;45.60;;;;;;5000611;28;19914;-85
2022/07/18 08:08:18;;;;;;;;;;;35.70;45.50;;;;;;5020085;28;20232;-85
2022/07/18 08:10:44;;;;;;;;;;;35.80;45.30;;;;;;5021138;28;20463;-84
2022/07/18 08:13:10;;;;;;;;;;;36.60;44.20;;;;;;5012386;28;20031;-84
2022/07/18 08:15:36;;;;;;;;;;;36.30;44.80;;;;;;5015064;28;19984;-84
2022/07/18 08:18:02;;;;;;;;;;;36.50;44.70;;;;;;5017712;28;19923;-84
2022/07/18 08:20:27;;;;;;;;;;;36.40;44.70;;;;;;5021810;28;19913;-84
2022/07/18 08:23:00;;;;;;;;;;;36.30;44.80;;;;;;5019084;28;19924;-84
2022/07/18 08:25:26;;;;;;;;;;;37.00;44.30;;;;;;5019758;28;19962;-84
2022/07/18 08:27:51;;;;;;;;;;;36.80;44.10;;;;;;5010416;28;20866;-84
2022/07/18 08:30:17;;;;;;;;;;;37.20;44.00;;;;;;5015548;28;19921;-84
2022/07/18 08:32:43;;;;;;;;;;;37.70;43.50;;;;;;5018797;28;19971;-85
2022/07/18 08:35:08;;;;;;;;;;;38.00;43.50;;;;;;5014767;28;19955;-85
2022/07/18 08:37:34;;;;;;;;;;;37.90;43.90;;;;;;4994572;28;19913;-84
2022/07/18 08:39:59;;;;;;;;;;;37.20;43.20;;;;;;5013671;28;20577;-85
2022/07/18 08:42:26;;;;;;;;;;;37.50;43.70;;;;;;5018586;28;20008;-84
2022/07/18 08:44:55;;;;;;;;;;;38.10;44.10;;;;;;5021598;28;20443;-84
2022/07/18 08:47:21;;;;;;;;;;;38.10;42.90;;;;;;5019118;28;19928;-85
2022/07/18 08:49:47;;;;;;;;;;;37.90;43.40;;;;;;5019548;28;20653;-84
2022/07/18 08:52:13;;;;;;;;;;;38.10;43.00;;;;;;4998172;28;19914;-86
2022/07/18 08:54:39;;;;;;;;;;;39.10;43.20;;;;;;5016619;28;20640;-84
2022/07/18 08:57:04;;;;;;;;;;;39.30;41.90;;;;;;5022015;28;20016;-84
2022/07/18 08:59:30;;;;;;;;;;;38.70;42.80;;;;;;5020508;28;20333;-85
2022/07/18 09:01:55;;;;;;;;;;;39.00;41.90;;;;;;5021836;28;19909;-85
2022/07/18 09:04:33;;;;;;;;;;;39.60;42.10;;;;;;5021072;28;19909;-84
2022/07/18 09:06:58;;;;;;;;;;;39.90;41.30;;;;;;5014766;28;19909;-84
2022/07/18 09:09:24;;;;;;;;;;;39.60;41.80;;;;;;5017023;28;20287;-85
2022/07/18 09:11:50;;;;;;;;;;;40.20;41.30;;;;;;5021959;28;19913;-84
2022/07/18 09:14:33;;;;;;;;;;;40.00;40.70;;;;;;5010523;28;19917;-84
2022/07/18 09:17:02;;;;;;;;;;;40.40;41.60;;;;;;5010638;28;20638;-85
2022/07/18 09:19:28;;;;;;;;;;;40.00;41.10;;;;;;5019170;28;19913;-82
2022/07/18 09:21:53;;;;;;;;;;;40.50;41.60;;;;;;5012401;28;20352;-82
2022/07/18 09:24:19;;;;;;;;;;;40.30;40.40;;;;;;5016505;28;19924;-85
2022/07/18 09:26:46;;;;;;;;;;;41.40;40.80;;;;;;5001848;28;19999;-83
2022/07/18 09:29:15;;;;;;;;;;;40.70;40.30;;;;;;5024929;28;20492;-82
2022/07/18 09:31:47;;;;;;;;;;;41.20;40.10;;;;;;5021651;28;19913;-84
2022/07/18 09:34:13;;;;;;;;;;;41.20;41.10;;;;;;5024328;28;19909;-83
2022/07/18 09:36:53;;;;;;;;;;;42.00;39.10;;;;;;5020040;28;19909;-84
2022/07/18 09:39:20;;;;;;;;;;;41.90;39.10;;;;;;5025041;28;19909;-85
2022/07/18 09:41:46;;;;;;;;;;;41.80;39.80;;;;;;5007429;28;19928;-83
2022/07/18 09:44:15;;;;;;;;;;;41.80;40.00;;;;;;5021023;28;19925;-83
2022/07/18 09:47:03;;;;;;;;;;;42.20;39.90;;;;;;5019101;28;20011;-83
2022/07/18 09:49:29;;;;;;;;;;;42.30;40.10;;;;;;5021770;28;19925;-86
2022/07/18 09:52:05;;;;;;;;;;;43.20;38.80;;;;;;5023758;28;19913;-86
2022/07/18 09:54:38;;;;;;;;;;;43.00;38.10;;;;;;5020104;28;19920;-85
2022/07/18 09:57:04;;;;;;;;;;;43.20;37.00;;;;;;5011313;28;20353;-86
2022/07/18 09:59:30;;;;;;;;;;;43.30;37.70;;;;;;4991481;28;19909;-86
2022/07/18 10:01:56;;;;;;;;;;;43.50;36.80;;;;;;5012950;28;20385;-86
2022/07/18 10:04:21;;;;;;;;;;;43.40;37.70;;;;;;5003431;28;19909;-85
2022/07/18 10:06:47;;;;;;;;;;;43.00;37.40;;;;;;5009424;28;19979;-86
2022/07/18 10:09:12;;;;;;;;;;;43.00;37.90;;;;;;4990067;28;19917;-85
2022/07/18 10:11:39;;;;;;;;;;;43.60;38.00;;;;;;5012660;28;20329;-85
2022/07/18 10:14:05;;;;;;;;;;;43.50;39.00;;;;;;4996972;28;19971;-86
2022/07/18 10:16:30;;;;;;;;;;;43.30;37.90;;;;;;5017732;28;19936;-85
2022/07/18 10:18:56;;;;;;;;;;;43.90;37.70;;;;;;5021771;28;20247;-86
2022/07/18 10:21:22;;;;;;;;;;;42.70;36.00;;;;;;5024367;28;19951;-87
2022/07/18 10:23:48;;;;;;;;;;;43.10;35.70;;;;;;5021020;28;19913;-86
2022/07/18 10:26:14;;;;;;;;;;;42.60;36.90;;;;;;5018446;28;19916;-86
2022/07/18 10:28:55;;;;;;;;;;;42.60;34.90;;;;;;5023540;28;19927;-86
2022/07/18 10:31:21;;;;;;;;;;;42.00;35.90;;;;;;4999739;28;19921;-85
2022/07/18 10:33:49;;;;;;;;;;;42.40;35.00;;;;;;5019242;28;20368;-86
2022/07/18 10:36:16;;;;;;;;;;;41.70;35.30;;;;;;5016759;28;19909;-87
2022/07/18 10:39:00;;;;;;;;;;;40.80;37.40;;;;;;5021824;28;19920;-87
2022/07/18 10:41:26;;;;;;;;;;;40.40;35.50;;;;;;5018835;28;20394;-87
2022/07/18 10:43:51;;;;;;;;;;;39.20;37.30;;;;;;5000088;28;19920;-85
2022/07/18 10:46:17;;;;;;;;;;;38.40;37.40;;;;;;5019309;28;19921;-87
2022/07/18 10:48:42;;;;;;;;;;;38.50;37.80;;;;;;5022845;28;19928;-87
2022/07/18 10:51:08;;;;;;;;;;;38.40;36.40;;;;;;5021363;28;19913;-86
2022/07/18 10:53:53;;;;;;;;;;;38.00;37.20;;;;;;5012411;28;19917;-86
2022/07/18 10:56:18;;;;;;;;;;;37.50;37.10;;;;;;5015670;28;19913;-87
2022/07/18 10:58:44;;;;;;;;;;;37.60;37.80;;;;;;5011489;28;20294;-87
2022/07/18 11:01:14;;;;;;;;;;;37.40;37.50;;;;;;4999322;28;20825;-87
2022/07/18 11:03:40;;;;;;;;;;;37.10;38.10;;;;;;5017862;28;19916;-86
2022/07/18 11:06:05;;;;;;;;;;;37.10;37.70;;;;;;5016242;28;19912;-87
2022/07/18 11:08:33;;;;;;;;;;;37.10;39.10;;;;;;4995235;28;20322;-85
2022/07/18 11:11:01;;;;;;;;;;;37.20;39.90;;;;;;5012308;28;20456;-86
2022/07/18 11:13:32;;;;;;;;;;;37.20;39.50;;;;;;5004950;28;19925;-86
2022/07/18 11:16:09;;;;;;;;;;;37.10;40.10;;;;;;5011581;28;20341;-85
2022/07/18 11:18:41;;;;;;;;;;;37.00;38.60;;;;;;5009529;28;19908;-86
2022/07/18 11:21:26;;;;;;;;;;;36.70;39.00;;;;;;5004893;28;19913;-85
2022/07/18 11:23:52;;;;;;;;;;;36.50;37.40;;;;;;5020481;28;20056;-87
2022/07/18 11:26:23;;;;;;;;;;;36.60;36.90;;;;;;5009035;28;19962;-86
2022/07/18 11:28:55;;;;;;;;;;;36.50;37.00;;;;;;5010901;28;19964;-85
2022/07/18 11:31:21;;;;;;;;;;;36.50;37.30;;;;;;4998622;28;19913;-87
2022/07/18 11:33:48;;;;;;;;;;;36.60;37.70;;;;;;5009442;28;19936;-86
2022/07/18 11:36:18;;;;;;;;;;;36.60;39.10;;;;;;5008334;28;19931;-86
2022/07/18 11:38:51;;;;;;;;;;;36.20;38.30;;;;;;5012073;28;19995;-85
2022/07/18 11:41:17;;;;;;;;;;;36.00;38.70;;;;;;5008519;28;19913;-86
2022/07/18 11:43:44;;;;;;;;;;;36.20;39.00;;;;;;5019332;28;19931;-87
2022/07/18 11:46:14;;;;;;;;;;;36.40;41.30;;;;;;5018849;28;20489;-86
2022/07/18 11:48:40;;;;;;;;;;;36.20;39.30;;;;;;5013932;28;19917;-86
2022/07/18 11:51:09;;;;;;;;;;;36.00;38.20;;;;;;5017583;28;20427;-86
2022/07/18 11:53:34;;;;;;;;;;;36.00;38.70;;;;;;5011298;28;20346;-85
2022/07/18 11:56:03;;;;;;;;;;;36.10;39.10;;;;;;5018541;28;19960;-86
2022/07/18 11:58:34;;;;;;;;;;;36.10;39.00;;;;;;5002566;28;19928;-87
2022/07/18 12:01:00;;;;;;;;;;;36.00;39.80;;;;;;5020116;28;19917;-86
2022/07/18 12:03:27;;;;;;;;;;;35.90;38.80;;;;;;5010888;28;19917;-86
2022/07/18 12:05:53;;;;;;;;;;;35.80;39.50;;;;;;5012317;28;19923;-85
2022/07/18 12:08:29;;;;;;;;;;;35.90;38.80;;;;;;5021972;28;19959;-84
2022/07/18 12:11:04;;;;;;;;;;;35.70;39.10;;;;;;4998792;28;19952;-86
2022/07/18 12:13:46;;;;;;;;;;;35.80;40.50;;;;;;5017457;28;20697;-86
2022/07/18 12:16:28;;;;;;;;;;;35.80;40.30;;;;;;5021087;28;20577;-87
2022/07/18 12:18:55;;;;;;;;;;;35.80;40.70;;;;;;5011205;28;20389;-87
2022/07/18 12:21:21;;;;;;;;;;;36.10;39.90;;;;;;5020353;28;19920;-86
2022/07/18 12:23:47;;;;;;;;;;;36.00;38.90;;;;;;5004392;28;19917;-86
2022/07/18 12:26:25;;;;;;;;;;;35.90;38.20;;;;;;5010698;28;20332;-86
2022/07/18 12:29:02;;;;;;;;;;;36.00;38.70;;;;;;5019899;28;19932;-87
2022/07/18 12:31:41;;;;;;;;;;;35.70;37.20;;;;;;5013169;28;19928;-86
2022/07/18 12:34:11;;;;;;;;;;;35.70;38.40;;;;;;5017156;28;19920;-86
2022/07/18 12:36:49;;;;;;;;;;;35.80;37.40;;;;;;5021177;28;19913;-86
2022/07/18 12:39:24;;;;;;;;;;;35.80;38.00;;;;;;5017451;28;20588;-86
2022/07/18 12:41:50;;;;;;;;;;;35.70;37.60;;;;;;5016802;28;19913;-87
2022/07/18 12:44:15;;;;;;;;;;;35.90;37.30;;;;;;5019019;28;20157;-87
2022/07/18 12:46:41;;;;;;;;;;;35.90;36.60;;;;;;4994113;28;19960;-86
2022/07/18 12:49:06;;;;;;;;;;;35.90;35.60;;;;;;5016312;28;19921;-86
2022/07/18 12:51:32;;;;;;;;;;;35.70;35.80;;;;;;5017366;28;19963;-86
2022/07/18 12:53:57;;;;;;;;;;;35.70;36.10;;;;;;5015644;28;19919;-86
2022/07/18 12:56:23;;;;;;;;;;;36.00;35.70;;;;;;5015295;28;19917;-87
2022/07/18 12:58:48;;;;;;;;;;;35.90;36.70;;;;;;5020741;28;19913;-86
2022/07/18 13:01:14;;;;;;;;;;;35.80;36.20;;;;;;5024396;28;20421;-87
2022/07/18 13:03:40;;;;;;;;;;;35.80;36.60;;;;;;5020470;28;19913;-87
2022/07/18 13:06:06;;;;;;;;;;;35.90;36.50;;;;;;5023703;28;20401;-86
2022/07/18 13:08:31;;;;;;;;;;;35.90;36.80;;;;;;5024551;28;19959;-86
2022/07/18 13:11:00;;;;;;;;;;;36.00;35.70;;;;;;5020862;28;20003;-87
2022/07/18 13:13:25;;;;;;;;;;;35.70;35.60;;;;;;5002974;28;19924;-87
2022/07/18 13:15:51;;;;;;;;;;;36.00;35.90;;;;;;5020870;28;19915;-87
2022/07/18 13:18:16;;;;;;;;;;;36.00;35.60;;;;;;5017498;28;19964;-87
2022/07/18 13:20:42;;;;;;;;;;;35.70;35.00;;;;;;5014705;28;20305;-86
2022/07/18 13:23:10;;;;;;;;;;;35.60;35.50;;;;;;5009020;28;20699;-86
2022/07/18 13:25:35;;;;;;;;;;;35.70;35.40;;;;;;5020254;28;20425;-87
2022/07/18 13:28:01;;;;;;;;;;;35.80;35.70;;;;;;5013560;28;19964;-84
2022/07/18 13:30:26;;;;;;;;;;;35.80;36.00;;;;;;5018075;28;19920;-83
2022/07/18 13:32:55;;;;;;;;;;;35.90;36.30;;;;;;5020145;28;19959;-88
2022/07/18 13:35:20;;;;;;;;;;;35.80;36.70;;;;;;4999314;28;19913;-85
2022/07/18 13:37:46;;;;;;;;;;;35.60;35.60;;;;;;5017540;28;19940;-83
2022/07/18 13:40:13;;;;;;;;;;;35.50;35.30;;;;;;5019517;28;19919;-83
2022/07/18 13:42:39;;;;;;;;;;;35.50;35.80;;;;;;5016898;28;19974;-83
2022/07/18 13:45:05;;;;;;;;;;;35.40;35.70;;;;;;5019188;28;20452;-84
2022/07/18 13:47:31;;;;;;;;;;;35.60;35.80;;;;;;5014401;28;19948;-84
2022/07/18 13:49:56;;;;;;;;;;;35.80;36.10;;;;;;5007055;28;19964;-84
2022/07/18 13:52:22;;;;;;;;;;;35.80;35.80;;;;;;5001708;28;19932;-83
2022/07/18 13:54:49;;;;;;;;;;;35.70;35.40;;;;;;5021591;28;19999;-83
2022/07/18 13:57:14;;;;;;;;;;;35.70;36.40;;;;;;5022324;28;19920;-82
2022/07/18 13:59:40;;;;;;;;;;;35.50;36.70;;;;;;5020168;28;19913;-83
2022/07/18 14:02:05;;;;;;;;;;;35.60;36.00;;;;;;5019034;28;20480;-84
2022/07/18 14:04:31;;;;;;;;;;;35.80;35.80;;;;;;5018785;28;20707;-82
2022/07/18 14:06:56;;;;;;;;;;;35.70;35.50;;;;;;5006307;28;19931;-82
2022/07/18 14:09:22;;;;;;;;;;;35.80;35.50;;;;;;5021996;28;20376;-83
2022/07/18 14:11:47;;;;;;;;;;;35.80;34.80;;;;;;5020581;28;20015;-83
2022/07/18 14:14:13;;;;;;;;;;;35.90;36.00;;;;;;5018757;28;20782;-83
2022/07/18 14:16:38;;;;;;;;;;;35.90;35.20;;;;;;5019263;28;19959;-83